Turin, Iowa
Current Conditions -  °F | °C
As of 7:54 PM on Friday 24 Oct 2014 (Local Time) from KTQE Reporting Station
Clear Clear  
Wind Chill: 60°   Ceiling: Unl
Heat Index: 60°   Visibility: 10mi
Dew Point: 49°   Wind: 3mph
Humidity: 67%   Direction: 290°WNW
Pressure: 29.95"   Gusts: NA
Location:  42.02°N, 95.97°W
Report Text: KTQE 250054Z AUTO 29003KT 10SM CLR 16/09 A2995 RMK AO2 SLP135 T01560094
Loading
Personal Weather Stations






























Interactive Weather Map
Tropical Storm Tracking
New forecast layout! Learn more

10-Day Weather Forecast

Advertisements
Track Severe Weather on mobile